PWSweather.com
Personal Weather Stations
Station Observations
PWSLORIS
The Farm At Fox Bay, Loris, SC 29569

The Farm At Fox BayLoris, SC 29569

Lat: 34.067097, Lon: -78.86907

Elevation: 108

Station Type: Davis Vantage Pro2 with 24 hr. FARS and solar

http://www.lorisweather.com

High Low Average
Temperature 70.7°F21.5°F 34.1°F1.2°F 55.0°F12.8°F
Dew Point 61.5°F16.4°F 33.1°F0.6°F 50.0°F10.0°F
Winds 6.9 mph S11.1 mph S Calm Calm 1.9 mph 3.1 mph
Wind Gusts 13.8 mph22.2 mph -- 3.5 mph5.6 mph
Humidity 98% 64% 85%
Pressure 30.15 in1021.00 in 29.73 in1006.80 in -
Precipitation 0.00 in0.00 in - -
Hour Temp Dew Point Humidity Winds Wind Gusts Pressure Precip Precip Rate Daily Precip Total
12:00 AM 36.6°F2.6°C 35.6°F2.0°C 96% Calm Calm -- 30.15 in1021.0 mb - 0.00 in0.0 mm 0.00 in0.0 mm
12:15 AM 36.6°F2.6°C 35.6°F2.0°C 96% Calm Calm -- 30.15 in1021.0 mb - 0.00 in0.0 mm 0.00 in0.0 mm
12:30 AM 36.4°F2.4°C 35.4°F1.9°C 96% Calm Calm -- 30.14 in1020.7 mb - 0.00 in0.0 mm 0.00 in0.0 mm
12:45 AM 36.3°F2.4°C 35.3°F1.8°C 96% Calm Calm -- 30.14 in1020.7 mb - 0.00 in0.0 mm 0.00 in0.0 mm
01:00 AM 36.0°F2.2°C 35.0°F1.7°C 96% Calm Calm -- 30.13 in1020.3 mb - 0.00 in0.0 mm 0.00 in0.0 mm
01:15 AM 35.7°F2.1°C 34.7°F1.5°C 96% Calm Calm -- 30.13 in1020.3 mb - 0.00 in0.0 mm 0.00 in0.0 mm
01:30 AM 35.5°F1.9°C 34.4°F1.3°C 96% Calm Calm -- 30.13 in1020.3 mb - 0.00 in0.0 mm 0.00 in0.0 mm
01:45 AM 35.5°F1.9°C 34.5°F1.4°C 96% Calm Calm -- 30.13 in1020.3 mb - 0.00 in0.0 mm 0.00 in0.0 mm
02:00 AM 35.3°F1.8°C 34.3°F1.3°C 96% Calm Calm -- 30.12 in1020.0 mb - 0.00 in0.0 mm 0.00 in0.0 mm
02:15 AM 35.3°F1.8°C 34.3°F1.3°C 96% Calm Calm -- 30.12 in1020.0 mb - 0.00 in0.0 mm 0.00 in0.0 mm
02:30 AM 35.2°F1.8°C 34.2°F1.2°C 96% Calm Calm -- 30.12 in1020.0 mb - 0.00 in0.0 mm 0.00 in0.0 mm
02:45 AM 34.8°F1.6°C 33.8°F1.0°C 96% Calm Calm -- 30.11 in1019.6 mb - 0.00 in0.0 mm 0.00 in0.0 mm
03:00 AM 34.9°F1.6°C 33.9°F1.1°C 96% Calm Calm -- 30.11 in1019.6 mb - 0.00 in0.0 mm 0.00 in0.0 mm
03:15 AM 34.8°F1.6°C 33.8°F1.0°C 96% Calm Calm -- 30.11 in1019.6 mb - 0.00 in0.0 mm 0.00 in0.0 mm
03:30 AM 34.7°F1.5°C 33.7°F0.9°C 96% Calm Calm -- 30.10 in1019.3 mb - 0.00 in0.0 mm 0.00 in0.0 mm
03:45 AM 34.6°F1.4°C 33.6°F0.9°C 96% Calm Calm -- 30.10 in1019.3 mb - 0.00 in0.0 mm 0.00 in0.0 mm
04:00 AM 34.6°F1.4°C 33.5°F0.8°C 96% Calm Calm -- 30.10 in1019.3 mb - 0.00 in0.0 mm 0.00 in0.0 mm
04:15 AM 34.6°F1.4°C 33.6°F0.9°C 96% Calm Calm -- 30.10 in1019.3 mb - 0.00 in0.0 mm 0.00 in0.0 mm
04:30 AM 34.6°F1.4°C 33.6°F0.9°C 96% Calm Calm -- 30.09 in1019.0 mb - 0.00 in0.0 mm 0.00 in0.0 mm
04:45 AM 34.3°F1.3°C 33.3°F0.7°C 96% Calm Calm -- 30.09 in1019.0 mb - 0.00 in0.0 mm 0.00 in0.0 mm
05:00 AM 34.1°F1.2°C 33.1°F0.6°C 96% Calm Calm -- 30.08 in1018.6 mb - 0.00 in0.0 mm 0.00 in0.0 mm
05:15 AM 34.4°F1.3°C 33.4°F0.8°C 96% Calm Calm -- 30.08 in1018.6 mb - 0.00 in0.0 mm 0.00 in0.0 mm
05:30 AM 34.8°F1.6°C 34.0°F1.1°C 97% Calm Calm -- 30.08 in1018.6 mb - 0.00 in0.0 mm 0.00 in0.0 mm
05:45 AM 35.5°F1.9°C 34.7°F1.5°C 97% Calm Calm -- 30.08 in1018.6 mb - 0.00 in0.0 mm 0.00 in0.0 mm
06:00 AM 36.0°F2.2°C 35.2°F1.8°C 97% Calm Calm -- 30.07 in1018.3 mb - 0.00 in0.0 mm 0.00 in0.0 mm
06:15 AM 36.0°F2.2°C 35.2°F1.8°C 97% Calm Calm -- 30.07 in1018.3 mb - 0.00 in0.0 mm 0.00 in0.0 mm
06:30 AM 36.3°F2.4°C 35.5°F1.9°C 97% Calm Calm -- 30.06 in1017.9 mb - 0.00 in0.0 mm 0.00 in0.0 mm
06:45 AM 36.6°F2.6°C 35.8°F2.1°C 97% Calm Calm -- 30.07 in1018.3 mb - 0.00 in0.0 mm 0.00 in0.0 mm
07:00 AM 36.9°F2.7°C 36.1°F2.3°C 97% Calm Calm -- 30.07 in1018.3 mb - 0.00 in0.0 mm 0.00 in0.0 mm
07:15 AM 37.5°F3.1°C 36.7°F2.6°C 97% Calm Calm -- 30.06 in1017.9 mb - 0.00 in0.0 mm 0.00 in0.0 mm
07:30 AM 38.4°F3.6°C 37.6°F3.1°C 97% Calm Calm -- 30.05 in1017.6 mb - 0.00 in0.0 mm 0.00 in0.0 mm
07:45 AM 40.5°F4.7°C 39.7°F4.3°C 97% Calm Calm -- 30.05 in1017.6 mb - 0.00 in0.0 mm 0.00 in0.0 mm
08:00 AM 42.7°F5.9°C 41.9°F5.5°C 97% Calm Calm -- 30.06 in1017.9 mb - 0.00 in0.0 mm 0.00 in0.0 mm
08:15 AM 44.8°F7.1°C 44.0°F6.7°C 97% Calm Calm -- 30.06 in1017.9 mb - 0.00 in0.0 mm 0.00 in0.0 mm
08:30 AM 48.6°F9.2°C 48.0°F8.9°C 98% Calm Calm -- 30.07 in1018.3 mb - 0.00 in0.0 mm 0.00 in0.0 mm
08:45 AM 52.9°F11.6°C 52.0°F11.1°C 97% Calm Calm 3.5 mph5.6 kmh 30.06 in1017.9 mb - 0.00 in0.0 mm 0.00 in0.0 mm
09:00 AM 55.6°F13.1°C 53.3°F11.8°C 92% Calm Calm -- 30.06 in1017.9 mb - 0.00 in0.0 mm 0.00 in0.0 mm
09:15 AM 58.4°F14.7°C 54.9°F12.7°C 88% 1.2 mph S1.9 kmh S 2.3 mph3.7 kmh 30.05 in1017.6 mb - 0.00 in0.0 mm 0.00 in0.0 mm
09:30 AM 60.3°F15.7°C 55.8°F13.2°C 85% 1.2 mph S1.9 kmh S 3.5 mph5.6 kmh 30.04 in1017.3 mb - 0.00 in0.0 mm 0.00 in0.0 mm
09:45 AM 61.3°F16.3°C 56.1°F13.4°C 83% 2.3 mph S3.7 kmh S 5.8 mph9.3 kmh 30.04 in1017.3 mb - 0.00 in0.0 mm 0.00 in0.0 mm
10:00 AM 62.9°F17.2°C 56.6°F13.7°C 80% 4.6 mph SSE7.4 kmh SSE 5.8 mph9.3 kmh 30.04 in1017.3 mb - 0.00 in0.0 mm 0.00 in0.0 mm
10:15 AM 63.3°F17.4°C 56.6°F13.7°C 79% 3.5 mph S5.6 kmh S 5.8 mph9.3 kmh 30.04 in1017.3 mb - 0.00 in0.0 mm 0.00 in0.0 mm
10:30 AM 64.5°F18.1°C 56.4°F13.6°C 75% 3.5 mph S5.6 kmh S 8.1 mph13.0 kmh 30.04 in1017.3 mb - 0.00 in0.0 mm 0.00 in0.0 mm
10:45 AM 65.5°F18.6°C 55.8°F13.2°C 71% 3.5 mph S5.6 kmh S 6.9 mph11.1 kmh 30.03 in1016.9 mb - 0.00 in0.0 mm 0.00 in0.0 mm
11:00 AM 66.4°F19.1°C 56.8°F13.8°C 71% 3.5 mph S5.6 kmh S 4.6 mph7.4 kmh 30.02 in1016.6 mb - 0.00 in0.0 mm 0.00 in0.0 mm
11:15 AM 67.4°F19.7°C 56.4°F13.6°C 68% 3.5 mph S5.6 kmh S 3.5 mph5.6 kmh 30.02 in1016.6 mb - 0.00 in0.0 mm 0.00 in0.0 mm
11:30 AM 68.1°F20.1°C 56.7°F13.7°C 67% 4.6 mph S7.4 kmh S 10.4 mph16.7 kmh 30.00 in1015.9 mb - 0.00 in0.0 mm 0.00 in0.0 mm
11:45 AM 69.5°F20.8°C 58.1°F14.5°C 67% 2.3 mph S3.7 kmh S 8.1 mph13.0 kmh 29.99 in1015.6 mb - 0.00 in0.0 mm 0.00 in0.0 mm
12:00 PM 69.5°F20.8°C 57.2°F14.0°C 65% 2.3 mph S3.7 kmh S 4.6 mph7.4 kmh 29.98 in1015.2 mb - 0.00 in0.0 mm 0.00 in0.0 mm
12:15 PM 68.1°F20.1°C 55.9°F13.3°C 65% 5.8 mph S9.3 kmh S 6.9 mph11.1 kmh 29.97 in1014.9 mb - 0.00 in0.0 mm 0.00 in0.0 mm
12:30 PM 69.3°F20.7°C 56.6°F13.7°C 64% 5.8 mph S9.3 kmh S 5.8 mph9.3 kmh 29.95 in1014.2 mb - 0.00 in0.0 mm 0.00 in0.0 mm
12:45 PM 69.4°F20.8°C 57.5°F14.2°C 66% 5.8 mph S9.3 kmh S 9.2 mph14.8 kmh 29.94 in1013.9 mb - 0.00 in0.0 mm 0.00 in0.0 mm
01:00 PM 69.3°F20.7°C 57.0°F13.9°C 65% 3.5 mph S5.6 kmh S 8.1 mph13.0 kmh 29.92 in1013.2 mb - 0.00 in0.0 mm 0.00 in0.0 mm
01:15 PM 69.5°F20.8°C 58.9°F14.9°C 69% 2.3 mph S3.7 kmh S 4.6 mph7.4 kmh 29.91 in1012.9 mb - 0.00 in0.0 mm 0.00 in0.0 mm
01:30 PM 70.1°F21.2°C 59.9°F15.5°C 70% 4.6 mph S7.4 kmh S 5.8 mph9.3 kmh 29.91 in1012.9 mb - 0.00 in0.0 mm 0.00 in0.0 mm
01:45 PM 69.2°F20.7°C 60.2°F15.7°C 73% 4.6 mph S7.4 kmh S 6.9 mph11.1 kmh 29.90 in1012.5 mb - 0.00 in0.0 mm 0.00 in0.0 mm
02:00 PM 69.2°F20.7°C 60.2°F15.7°C 73% 4.6 mph S7.4 kmh S 8.1 mph13.0 kmh 29.89 in1012.2 mb - 0.00 in0.0 mm 0.00 in0.0 mm
02:15 PM 69.3°F20.7°C 60.7°F15.9°C 74% 5.8 mph S9.3 kmh S 8.1 mph13.0 kmh 29.88 in1011.9 mb - 0.00 in0.0 mm 0.00 in0.0 mm
02:30 PM 69.4°F20.8°C 60.8°F16.0°C 74% 6.9 mph S11.1 kmh S 13.8 mph22.2 kmh 29.87 in1011.5 mb - 0.00 in0.0 mm 0.00 in0.0 mm
02:45 PM 70.0°F21.1°C 60.9°F16.1°C 73% 4.6 mph S7.4 kmh S 8.1 mph13.0 kmh 29.86 in1011.2 mb - 0.00 in0.0 mm 0.00 in0.0 mm
03:00 PM 70.7°F21.5°C 61.2°F16.2°C 72% 6.9 mph S11.1 kmh S 9.2 mph14.8 kmh 29.85 in1010.8 mb - 0.00 in0.0 mm 0.00 in0.0 mm
03:15 PM 70.6°F21.4°C 61.5°F16.4°C 73% 5.8 mph S9.3 kmh S 11.5 mph18.5 kmh 29.84 in1010.5 mb - 0.00 in0.0 mm 0.00 in0.0 mm
03:30 PM 70.4°F21.3°C 61.4°F16.3°C 73% 1.2 mph S1.9 kmh S 3.5 mph5.6 kmh 29.84 in1010.5 mb - 0.00 in0.0 mm 0.00 in0.0 mm
03:45 PM 70.2°F21.2°C 61.1°F16.2°C 73% 1.2 mph SSE1.9 kmh SSE 2.3 mph3.7 kmh 29.84 in1010.5 mb - 0.00 in0.0 mm 0.00 in0.0 mm
04:00 PM 69.8°F21.0°C 60.8°F16.0°C 73% 5.8 mph S9.3 kmh S 9.2 mph14.8 kmh 29.83 in1010.2 mb - 0.00 in0.0 mm 0.00 in0.0 mm
04:15 PM 68.9°F20.5°C 61.0°F16.1°C 76% Calm Calm -- 29.83 in1010.2 mb - 0.00 in0.0 mm 0.00 in0.0 mm
04:30 PM 68.3°F20.2°C 60.8°F16.0°C 77% 1.2 mph S1.9 kmh S 4.6 mph7.4 kmh 29.82 in1009.8 mb - 0.00 in0.0 mm 0.00 in0.0 mm
04:45 PM 67.8°F19.9°C 60.7°F15.9°C 78% 3.5 mph S5.6 kmh S 4.6 mph7.4 kmh 29.82 in1009.8 mb - 0.00 in0.0 mm 0.00 in0.0 mm
05:00 PM 67.3°F19.6°C 60.5°F15.8°C 79% 2.3 mph SSW3.7 kmh SSW 4.6 mph7.4 kmh 29.81 in1009.5 mb - 0.00 in0.0 mm 0.00 in0.0 mm
05:15 PM 66.7°F19.3°C 60.3°F15.7°C 80% 3.5 mph S5.6 kmh S 4.6 mph7.4 kmh 29.81 in1009.5 mb - 0.00 in0.0 mm 0.00 in0.0 mm
05:30 PM 66.3°F19.1°C 60.3°F15.7°C 81% 3.5 mph S5.6 kmh S 6.9 mph11.1 kmh 29.81 in1009.5 mb - 0.00 in0.0 mm 0.00 in0.0 mm
05:45 PM 65.9°F18.8°C 60.2°F15.7°C 82% 2.3 mph S3.7 kmh S 5.8 mph9.3 kmh 29.81 in1009.5 mb - 0.00 in0.0 mm 0.00 in0.0 mm
06:00 PM 65.4°F18.6°C 59.7°F15.4°C 82% Calm Calm -- 29.81 in1009.5 mb - 0.00 in0.0 mm 0.00 in0.0 mm
06:15 PM 64.4°F18.0°C 59.4°F15.2°C 84% 1.2 mph S1.9 kmh S 4.6 mph7.4 kmh 29.81 in1009.5 mb - 0.00 in0.0 mm 0.00 in0.0 mm
06:30 PM 63.1°F17.3°C 58.8°F14.9°C 86% Calm Calm -- 29.81 in1009.5 mb - 0.00 in0.0 mm 0.00 in0.0 mm
06:45 PM 62.9°F17.2°C 58.6°F14.8°C 86% Calm Calm -- 29.82 in1009.8 mb - 0.00 in0.0 mm 0.00 in0.0 mm
07:00 PM 62.4°F16.9°C 58.4°F14.7°C 87% Calm Calm -- 29.82 in1009.8 mb - 0.00 in0.0 mm 0.00 in0.0 mm
07:15 PM 61.6°F16.4°C 58.0°F14.4°C 88% Calm Calm -- 29.82 in1009.8 mb - 0.00 in0.0 mm 0.00 in0.0 mm
07:30 PM 62.4°F16.9°C 58.4°F14.7°C 87% 2.3 mph S3.7 kmh S 4.6 mph7.4 kmh 29.82 in1009.8 mb - 0.00 in0.0 mm 0.00 in0.0 mm
07:45 PM 63.4°F17.4°C 58.1°F14.5°C 83% 3.5 mph SSW5.6 kmh SSW 5.8 mph9.3 kmh 29.81 in1009.5 mb - 0.00 in0.0 mm 0.00 in0.0 mm
08:00 PM 64.3°F17.9°C 58.3°F14.6°C 81% 2.3 mph S3.7 kmh S 3.5 mph5.6 kmh 29.81 in1009.5 mb - 0.00 in0.0 mm 0.00 in0.0 mm
08:15 PM 64.5°F18.1°C 58.2°F14.6°C 80% 3.5 mph S5.6 kmh S 3.5 mph5.6 kmh 29.81 in1009.5 mb - 0.00 in0.0 mm 0.00 in0.0 mm
08:30 PM 64.8°F18.2°C 58.1°F14.5°C 79% 1.2 mph SW1.9 kmh SW 2.3 mph3.7 kmh 29.80 in1009.1 mb - 0.00 in0.0 mm 0.00 in0.0 mm
08:45 PM 64.6°F18.1°C 58.0°F14.4°C 79% 2.3 mph S3.7 kmh S 3.5 mph5.6 kmh 29.80 in1009.1 mb - 0.00 in0.0 mm 0.00 in0.0 mm
09:00 PM 64.4°F18.0°C 57.7°F14.3°C 79% 2.3 mph SSW3.7 kmh SSW 5.8 mph9.3 kmh 29.80 in1009.1 mb - 0.00 in0.0 mm 0.00 in0.0 mm
09:15 PM 64.0°F17.8°C 57.4°F14.1°C 79% 1.2 mph SSE1.9 kmh SSE 4.6 mph7.4 kmh 29.79 in1008.8 mb - 0.00 in0.0 mm 0.00 in0.0 mm
09:30 PM 63.9°F17.7°C 57.6°F14.2°C 80% 3.5 mph S5.6 kmh S 5.8 mph9.3 kmh 29.79 in1008.8 mb - 0.00 in0.0 mm 0.00 in0.0 mm
09:45 PM 63.6°F17.6°C 57.3°F14.1°C 80% 3.5 mph S5.6 kmh S 5.8 mph9.3 kmh 29.78 in1008.5 mb - 0.00 in0.0 mm 0.00 in0.0 mm
10:00 PM 63.5°F17.5°C 57.6°F14.2°C 81% 2.3 mph S3.7 kmh S 8.1 mph13.0 kmh 29.78 in1008.5 mb - 0.00 in0.0 mm 0.00 in0.0 mm
10:15 PM 63.5°F17.5°C 57.9°F14.4°C 82% 3.5 mph S5.6 kmh S 4.6 mph7.4 kmh 29.78 in1008.5 mb - 0.00 in0.0 mm 0.00 in0.0 mm
10:30 PM 63.3°F17.4°C 57.7°F14.3°C 82% 2.3 mph S3.7 kmh S 6.9 mph11.1 kmh 29.77 in1008.1 mb - 0.00 in0.0 mm 0.00 in0.0 mm
10:45 PM 63.6°F17.6°C 58.0°F14.4°C 82% 4.6 mph SSW7.4 kmh SSW 8.1 mph13.0 kmh 29.76 in1007.8 mb - 0.00 in0.0 mm 0.00 in0.0 mm
11:00 PM 63.7°F17.6°C 58.1°F14.5°C 82% 3.5 mph S5.6 kmh S 11.5 mph18.5 kmh 29.75 in1007.5 mb - 0.00 in0.0 mm 0.00 in0.0 mm
11:15 PM 63.8°F17.7°C 58.2°F14.6°C 82% 5.8 mph S9.3 kmh S 8.1 mph13.0 kmh 29.74 in1007.1 mb - 0.00 in0.0 mm 0.00 in0.0 mm
11:30 PM 63.8°F17.7°C 58.2°F14.6°C 82% 5.8 mph S9.3 kmh S 11.5 mph18.5 kmh 29.73 in1006.8 mb - 0.00 in0.0 mm 0.00 in0.0 mm
11:45 PM 63.8°F17.7°C 58.2°F14.6°C 82% 3.5 mph S5.6 kmh S 3.5 mph5.6 kmh 29.73 in1006.8 mb - 0.00 in0.0 mm 0.00 in0.0 mm